Time;durP1;ratioP1;P1;durP2;ratioP2;P2;SDS_P1;SDS_P2;PMS_P1;PMS_P2;Temp;Humidity;BMP_temperature;BMP_pressure;BME280_temperature;BME280_humidity;BME280_pressure;Samples;Min_cycle;Max_cycle;Signal;HPM_P1;HPM_P2
2023/05/20 00:00:58;;;;;;;9.70;6.87;;;12.40;99.90;;;-141.84;67.38;20248.78;5030282;28;20305;-58
2023/05/20 00:03:26;;;;;;;6.97;6.23;;;12.40;99.90;;;-141.84;66.84;20240.66;5030561;28;20267;-56
2023/05/20 00:05:56;;;;;;;6.70;6.10;;;12.50;99.90;;;-141.84;67.61;20185.78;5030194;28;20217;-57
2023/05/20 00:08:24;;;;;;;7.47;5.93;;;12.50;99.90;;;-141.84;67.78;20208.13;5030697;28;20244;-56
2023/05/20 00:10:52;;;;;;;7.13;6.17;;;12.40;99.90;;;-141.84;67.77;20230.50;5030200;28;20309;-57
2023/05/20 00:13:20;;;;;;;7.07;6.37;;;12.40;99.90;;;-141.84;67.59;20234.56;5029946;28;20289;-56
2023/05/20 00:15:48;;;;;;;6.90;6.10;;;12.40;99.90;;;-141.84;67.41;20179.69;5030024;28;20198;-55
2023/05/20 00:18:16;;;;;;;8.60;6.17;;;12.50;99.90;;;-141.84;67.23;20218.31;5030326;28;20328;-55
2023/05/20 00:20:44;;;;;;;9.27;6.30;;;12.50;99.90;;;-141.84;67.87;20175.63;5030462;28;20293;-55
2023/05/20 00:23:14;;;;;;;7.07;6.20;;;12.40;99.90;;;-141.84;67.72;20248.78;5030375;28;20210;-56
2023/05/20 00:25:42;;;;;;;6.97;6.30;;;12.50;99.90;;;-141.84;67.73;20187.81;5029918;28;20649;-59
2023/05/20 00:28:10;;;;;;;7.60;6.73;;;12.60;99.90;;;-141.84;67.68;20187.81;5030066;28;20209;-53
2023/05/20 00:30:40;;;;;;;7.47;6.47;;;12.50;99.90;;;-141.84;68.10;20189.84;5029885;28;20635;-56
2023/05/20 00:33:09;;;;;;;7.53;6.83;;;12.50;99.90;;;-141.84;68.05;20200.00;5030135;28;20671;-56
2023/05/20 00:35:37;;;;;;;7.20;6.50;;;12.50;99.90;;;-141.84;67.93;20179.69;5030114;28;20199;-56
2023/05/20 00:38:05;;;;;;;8.63;6.63;;;12.50;99.90;;;-141.84;67.92;20200.00;5030136;28;20226;-54
2023/05/20 00:40:35;;;;;;;8.00;6.60;;;12.50;99.90;;;-141.84;68.16;20216.25;5030383;28;20468;-56
2023/05/20 00:43:03;;;;;;;7.67;6.87;;;12.50;99.90;;;-141.84;67.82;20244.72;5029923;28;20195;-57
2023/05/20 00:45:32;;;;;;;7.57;6.93;;;12.60;99.90;;;-141.84;67.82;20238.63;5030246;28;20293;-54
2023/05/20 00:48:02;;;;;;;7.53;6.73;;;12.70;99.90;;;-141.84;68.21;20191.88;5029797;28;20670;-54
2023/05/20 00:50:32;;;;;;;6.83;6.23;;;12.60;99.90;;;-141.84;68.03;20218.31;5029641;28;20193;-58
2023/05/20 00:53:00;;;;;;;8.80;7.50;;;12.60;99.90;;;-141.84;68.57;20202.03;5029809;28;20292;-55
2023/05/20 00:55:29;;;;;;;13.20;6.93;;;12.50;99.90;;;-141.84;68.19;20224.41;5029926;28;20238;-54
2023/05/20 00:57:58;;;;;;;7.17;6.47;;;12.60;99.90;;;-141.84;68.46;20224.41;5029985;28;20317;-57
2023/05/20 01:00:26;;;;;;;7.93;7.10;;;12.60;99.90;;;-141.84;68.45;20193.91;5032731;28;20290;-56
2023/05/20 01:02:56;;;;;;;7.97;7.00;;;12.60;99.90;;;-141.84;67.79;20212.19;5033484;28;20260;-55
2023/05/20 01:05:24;;;;;;;8.63;6.63;;;12.70;99.90;;;-141.84;67.71;20228.47;5033349;28;20212;-57
2023/05/20 01:07:52;;;;;;;8.30;7.27;;;12.70;99.90;;;-141.84;68.22;20216.25;5033508;28;20206;-57
2023/05/20 01:10:24;;;;;;;8.20;7.40;;;12.70;99.90;;;-141.84;68.15;20230.50;5033005;28;20252;-58
2023/05/20 01:13:00;;;;;;;8.27;7.47;;;12.70;99.90;;;-141.84;68.37;20246.75;5033665;28;20238;-54
2023/05/20 01:15:31;;;;;;;9.20;7.33;;;12.70;99.90;;;-141.84;68.25;20267.09;5033166;28;20239;-57
2023/05/20 01:18:04;;;;;;;8.20;7.37;;;12.80;99.90;;;-141.84;68.43;20206.09;5033127;28;20517;-57
2023/05/20 01:20:35;;;;;;;8.00;7.20;;;12.80;99.90;;;-141.84;68.31;20220.34;5033132;28;20221;-57
2023/05/20 01:23:04;;;;;;;9.13;7.30;;;12.70;99.90;;;-141.84;68.45;20236.59;5033391;28;20232;-56
2023/05/20 01:25:32;;;;;;;8.30;7.40;;;12.70;99.90;;;-141.84;69.20;20220.34;5032931;28;20191;-54
2023/05/20 01:28:01;;;;;;;7.70;6.83;;;12.70;99.90;;;-141.84;68.78;20187.81;5032476;28;20689;-54
2023/05/20 01:30:37;;;;;;;8.00;7.20;;;12.70;99.90;;;-141.84;68.89;20212.19;5032781;28;20297;-56
2023/05/20 01:33:11;;;;;;;8.20;7.43;;;12.80;99.90;;;-141.84;69.04;20206.09;5033002;28;20237;-56
2023/05/20 01:35:41;;;;;;;7.50;6.80;;;12.70;99.90;;;-141.84;68.59;20236.59;5032981;28;20241;-59
2023/05/20 01:38:12;;;;;;;8.67;7.50;;;12.80;99.90;;;-141.84;68.69;20234.56;5032922;28;20293;-55
2023/05/20 01:40:43;;;;;;;8.10;7.30;;;12.80;99.90;;;-141.84;68.60;20220.34;5032632;28;20229;-56
2023/05/20 01:43:12;;;;;;;8.73;7.93;;;12.90;99.90;;;-141.84;68.53;20218.31;5032233;28;20187;-56
2023/05/20 01:45:44;;;;;;;8.80;7.67;;;12.80;99.90;;;-141.84;68.93;20250.81;5032615;28;20194;-56
2023/05/20 01:48:12;;;;;;;10.43;7.73;;;12.80;99.90;;;-141.84;68.89;20244.72;5032895;28;20198;-56
2023/05/20 01:50:41;;;;;;;9.17;7.40;;;12.80;99.90;;;-141.84;69.15;20200.00;5032406;28;20296;-56
2023/05/20 01:53:12;;;;;;;8.13;7.33;;;12.80;99.90;;;-141.84;69.05;20216.25;5032591;28;20678;-55
2023/05/20 01:55:40;;;;;;;7.67;6.97;;;12.80;99.90;;;-141.84;69.36;20191.88;5032785;28;20214;-56
2023/05/20 01:58:08;;;;;;;8.47;7.63;;;12.80;99.90;;;-141.84;69.16;20208.13;5031993;28;20289;-56
2023/05/20 02:00:36;;;;;;;9.73;8.03;;;12.80;99.90;;;-141.84;68.90;20187.81;5032468;28;20237;-56
2023/05/20 02:03:04;;;;;;;8.50;7.60;;;12.80;99.90;;;-141.84;69.04;20263.00;5032390;28;20202;-57
2023/05/20 02:05:33;;;;;;;9.10;8.20;;;12.80;99.90;;;-141.84;68.91;20238.63;5032434;28;20214;-55
2023/05/20 02:08:01;;;;;;;8.50;7.60;;;12.80;99.90;;;-141.84;69.06;20236.59;5032351;28;20578;-57
2023/05/20 02:10:31;;;;;;;8.63;7.80;;;12.90;99.90;;;-141.84;69.60;20191.88;5032197;28;20195;-56
2023/05/20 02:12:59;;;;;;;8.80;8.00;;;12.80;99.90;;;-141.84;69.35;20185.78;5032318;28;20285;-55
2023/05/20 02:15:27;;;;;;;9.10;8.20;;;12.80;99.90;;;-141.84;69.39;20191.88;5032038;28;20214;-54
2023/05/20 02:17:56;;;;;;;9.23;8.23;;;12.80;99.90;;;-141.84;69.90;20222.38;5032112;28;20296;-56
2023/05/20 02:20:25;;;;;;;9.93;8.93;;;12.80;99.90;;;-141.84;69.23;20224.41;5032051;28;20222;-55
2023/05/20 02:22:53;;;;;;;9.13;8.23;;;12.80;99.90;;;-141.84;69.15;20216.25;5031658;28;20639;-53
2023/05/20 02:25:21;;;;;;;9.73;8.73;;;12.90;99.90;;;-141.84;69.55;20210.16;5031989;28;20190;-57
2023/05/20 02:27:51;;;;;;;10.00;9.10;;;12.80;99.90;;;-141.84;69.75;20222.38;5031939;28;20210;-57
2023/05/20 02:30:19;;;;;;;9.47;8.57;;;12.80;99.90;;;-141.84;69.71;20214.22;5031397;28;20550;-56
2023/05/20 02:32:47;;;;;;;11.50;9.63;;;12.70;99.90;;;-141.84;69.29;20222.38;5031364;28;20234;-57
2023/05/20 02:35:16;;;;;;;9.90;8.90;;;12.80;99.90;;;-141.84;69.73;20226.44;5031825;28;20244;-58
2023/05/20 02:37:47;;;;;;;10.00;9.00;;;12.80;99.90;;;-141.84;69.64;20216.25;5031900;28;20212;-58
2023/05/20 02:40:15;;;;;;;10.77;9.67;;;12.80;99.90;;;-141.84;69.61;20228.47;5031782;28;20241;-56
2023/05/20 02:42:43;;;;;;;10.43;9.37;;;12.80;99.90;;;-141.84;70.28;20202.03;5031259;28;20226;-73
2023/05/20 02:45:13;;;;;;;12.90;10.10;;;12.70;99.90;;;-141.84;69.75;20204.06;5031474;28;20237;-72
2023/05/20 02:47:41;;;;;;;12.10;10.83;;;12.80;99.90;;;-141.84;70.53;20177.66;5031234;28;20618;-71
2023/05/20 02:50:10;;;;;;;12.77;10.90;;;12.70;99.90;;;-141.84;70.29;20191.88;5031606;28;20289;-72
2023/05/20 02:52:38;;;;;;;12.97;11.67;;;12.70;99.90;;;-141.84;69.67;20222.38;5031194;28;20529;-72
2023/05/20 02:55:08;;;;;;;13.33;11.93;;;12.80;99.90;;;-141.84;69.63;20226.44;5031462;28;20272;-72
2023/05/20 02:57:37;;;;;;;13.20;11.27;;;12.80;99.90;;;-141.84;70.24;20191.88;5031059;28;20695;-72
2023/05/20 03:00:09;;;;;;;14.70;12.07;;;12.80;99.90;;;-141.84;69.96;20208.13;5031231;28;20222;-71
2023/05/20 03:02:39;;;;;;;14.63;12.33;;;12.80;99.90;;;-141.84;69.85;20208.13;5030883;28;20272;-71
2023/05/20 03:05:09;;;;;;;14.67;12.07;;;12.80;99.90;;;-141.84;70.34;20175.63;5031425;28;20237;-72
2023/05/20 03:07:37;;;;;;;13.17;11.80;;;12.80;99.90;;;-141.84;70.62;20175.63;5030927;28;20252;-72
2023/05/20 03:10:08;;;;;;;14.03;12.33;;;12.70;99.90;;;-141.84;70.69;20216.25;5030963;28;20198;-71
2023/05/20 03:12:36;;;;;;;13.83;12.33;;;12.70;99.90;;;-141.84;70.47;20193.91;5031150;28;20194;-71
2023/05/20 03:15:05;;;;;;;13.73;12.23;;;12.70;99.90;;;-141.84;69.87;20206.09;5030940;28;20206;-72
2023/05/20 03:17:33;;;;;;;14.17;11.90;;;12.80;99.90;;;-141.84;70.04;20216.25;5030772;28;20256;-70
2023/05/20 03:20:07;;;;;;;13.87;12.37;;;12.80;99.90;;;-141.84;70.29;20220.34;5030905;28;20230;-71
2023/05/20 03:22:35;;;;;;;13.53;12.17;;;12.70;99.90;;;-141.84;70.88;20181.72;5030426;28;20305;-71
2023/05/20 03:25:04;;;;;;;14.33;12.30;;;12.70;99.90;;;-141.84;70.55;20177.66;5030832;28;20204;-72
2023/05/20 03:27:33;;;;;;;12.73;11.43;;;12.70;99.90;;;-141.84;71.38;20173.59;5030411;28;20205;-71
2023/05/20 03:30:01;;;;;;;13.33;11.83;;;12.70;99.90;;;-141.84;71.83;20159.34;5030754;28;20204;-71
2023/05/20 03:32:29;;;;;;;13.37;11.97;;;12.60;99.90;;;-141.84;72.36;20134.97;5030101;28;20273;-71
2023/05/20 03:34:58;;;;;;;12.87;11.47;;;;;;;-141.84;72.69;20147.16;5030896;28;20221;-71
2023/05/20 03:37:28;;;;;;;12.93;11.47;;;12.40;99.90;;;-141.84;72.50;20157.31;5030770;28;20248;-71
2023/05/20 03:39:56;;;;;;;12.73;11.43;;;12.40;99.90;;;-141.84;73.15;20126.84;5030648;28;20230;-71
2023/05/20 03:42:24;;;;;;;13.37;11.57;;;12.40;99.90;;;-141.84;72.80;20137.00;5030231;28;20302;-70
2023/05/20 03:44:52;;;;;;;12.03;10.83;;;12.40;99.90;;;-141.84;72.46;20179.69;5030298;28;20211;-71
2023/05/20 03:47:20;;;;;;;12.93;10.80;;;12.50;99.90;;;-141.84;72.25;20145.13;5030431;28;20225;-72
2023/05/20 03:49:49;;;;;;;14.57;10.67;;;12.50;99.90;;;-141.84;72.74;20163.41;5030778;28;20194;-73
2023/05/20 03:52:17;;;;;;;12.67;11.37;;;12.40;99.90;;;-141.84;72.22;20167.47;5030246;28;20237;-72
2023/05/20 03:54:46;;;;;;;11.63;10.43;;;12.50;99.90;;;-141.84;72.57;20143.09;5030462;28;20285;-73
2023/05/20 03:57:15;;;;;;;13.27;10.80;;;12.40;99.90;;;-141.84;71.72;20175.63;5030677;28;20340;-71
2023/05/20 03:59:43;;;;;;;12.60;11.23;;;12.50;99.90;;;-141.84;71.99;20157.31;5029939;28;20404;-72
2023/05/20 04:02:11;;;;;;;13.03;11.33;;;12.50;99.90;;;-141.84;72.34;20167.47;5030636;28;20237;-72
2023/05/20 04:04:41;;;;;;;13.60;11.83;;;12.50;99.90;;;-141.84;71.81;20159.34;5030502;28;20214;-72
2023/05/20 04:07:10;;;;;;;12.17;10.97;;;12.50;99.90;;;-141.84;71.08;20171.56;5030550;28;20201;-72
2023/05/20 04:09:39;;;;;;;13.47;11.27;;;12.60;99.90;;;-141.84;71.67;20195.94;5030518;28;20273;-72
2023/05/20 04:12:09;;;;;;;13.13;11.53;;;12.50;99.90;;;-141.84;72.09;20163.41;5030365;28;20286;-73
2023/05/20 04:14:37;;;;;;;13.30;11.87;;;12.50;99.90;;;-141.84;70.83;20204.06;5030235;28;20288;-71
2023/05/20 04:17:06;;;;;;;13.53;11.27;;;12.50;99.90;;;-141.84;70.77;20195.94;5030392;28;20240;-72
2023/05/20 04:19:35;;;;;;;11.57;10.27;;;12.60;99.90;;;-141.84;71.19;20175.63;5029916;28;20241;-71
2023/05/20 04:22:04;;;;;;;13.53;11.50;;;12.70;99.90;;;-141.84;70.49;20214.22;5030436;28;20439;-72
2023/05/20 04:24:32;;;;;;;13.33;11.93;;;12.70;99.90;;;-141.84;70.99;20159.34;5029857;28;20202;-71
2023/05/20 04:27:01;;;;;;;12.67;11.37;;;12.70;99.90;;;-141.84;70.71;20189.84;5030037;28;20728;-71
2023/05/20 04:29:33;;;;;;;13.20;11.80;;;12.70;99.90;;;-141.84;69.89;20228.47;5030073;28;20293;-72
2023/05/20 04:32:02;;;;;;;13.83;12.47;;;12.80;99.90;;;-141.84;69.39;20240.66;5029680;28;20650;-70
2023/05/20 04:34:33;;;;;;;13.50;12.10;;;12.90;99.90;;;-141.84;69.35;20220.34;5031680;28;20288;-72
2023/05/20 04:37:02;;;;;;;13.13;11.47;;;12.90;99.90;;;-141.84;68.89;20248.78;5033955;28;20194;-71
2023/05/20 04:39:30;;;;;;;14.57;11.97;;;13.00;99.90;;;-141.84;68.73;20315.88;5033613;28;21102;-71
2023/05/20 04:41:58;;;;;;;14.10;12.43;;;13.10;99.90;;;-141.84;67.96;20263.00;5033923;28;20198;-71
2023/05/20 04:44:27;;;;;;;14.00;11.87;;;13.20;99.90;;;-141.84;68.80;20260.97;5033085;28;20577;-71
2023/05/20 04:46:56;;;;;;;14.20;12.70;;;13.20;99.90;;;-141.84;68.50;20301.63;5033227;28;20237;-71
2023/05/20 04:49:25;;;;;;;16.03;13.07;;;13.10;99.90;;;-141.84;68.32;20277.25;5033688;28;20230;-71
2023/05/20 04:51:54;;;;;;;14.10;12.60;;;13.20;99.90;;;-141.84;68.82;20260.97;5033486;28;20724;-71
2023/05/20 04:54:23;;;;;;;13.40;12.00;;;13.10;99.90;;;-141.84;69.08;20271.16;5033524;28;20202;-71
2023/05/20 04:56:52;;;;;;;14.77;11.40;;;13.10;99.90;;;-141.84;67.85;20326.03;5033810;28;20293;-71
2023/05/20 04:59:20;;;;;;;13.53;11.97;;;13.20;99.90;;;-141.84;67.22;20326.03;5033407;28;20670;-72
2023/05/20 05:01:48;;;;;;;12.60;11.13;;;13.40;99.90;;;-141.84;66.58;20348.38;5033305;28;20222;-71
2023/05/20 05:04:18;;;;;;;12.50;11.20;;;13.50;99.90;;;-141.84;66.61;20411.41;5033437;28;20224;-71
2023/05/20 05:06:48;;;;;;;12.67;11.37;;;13.60;99.90;;;-141.84;66.21;20376.84;5033332;28;20681;-71
2023/05/20 05:09:16;;;;;;;12.67;11.37;;;13.70;99.90;;;-141.84;65.89;20395.13;5033325;28;20285;-72
2023/05/20 05:11:44;;;;;;;14.40;11.67;;;13.70;99.90;;;-141.84;66.29;20360.59;5033217;28;20624;-71
2023/05/20 05:14:12;;;;;;;12.73;11.43;;;13.70;99.90;;;-141.84;66.62;20354.47;5033208;28;20260;-72
2023/05/20 05:16:41;;;;;;;12.83;11.53;;;13.60;99.90;;;-141.84;66.22;20348.38;5033487;28;20267;-71
2023/05/20 05:19:09;;;;;;;13.10;11.70;;;13.60;99.90;;;-141.84;66.28;20362.63;5033253;28;20242;-71
2023/05/20 05:21:38;;;;;;;12.10;10.97;;;13.60;99.90;;;-141.84;66.65;20303.66;5033339;28;20226;-71
2023/05/20 05:24:07;;;;;;;12.60;11.30;;;13.60;99.90;;;-141.84;66.79;20326.03;5032952;28;20296;-71
2023/05/20 05:26:35;;;;;;;13.17;11.33;;;13.60;99.90;;;-141.84;66.21;20344.31;5031748;28;20194;-70
2023/05/20 05:29:03;;;;;;;12.87;11.57;;;13.60;99.90;;;-141.84;66.08;20382.94;5032770;28;20289;-71
2023/05/20 05:31:32;;;;;;;13.17;11.70;;;13.70;99.90;;;-141.84;66.24;20352.44;5032826;28;20293;-71
2023/05/20 05:34:00;;;;;;;13.73;12.20;;;13.80;99.90;;;-141.84;65.64;20411.41;5033112;28;20222;-71
2023/05/20 05:36:28;;;;;;;13.73;12.43;;;13.80;99.90;;;-141.84;66.07;20372.78;5032766;28;20230;-72
2023/05/20 05:38:57;;;;;;;15.77;12.90;;;13.80;99.90;;;-141.84;65.09;20382.94;5032897;28;20320;-70
2023/05/20 05:41:26;;;;;;;13.93;12.53;;;13.90;99.90;;;-141.84;64.54;20399.19;5032755;28;20634;-71
2023/05/20 05:43:54;;;;;;;13.17;11.73;;;14.10;99.90;;;-141.84;64.44;20423.59;5032248;28;20292;-71
2023/05/20 05:46:22;;;;;;;14.00;12.60;;;14.10;99.90;;;-141.84;64.54;20384.97;5031863;28;20581;-71
2023/05/20 05:48:51;;;;;;;14.67;12.47;;;14.10;99.90;;;-141.84;64.04;20431.72;5032944;28;20202;-72
2023/05/20 05:51:19;;;;;;;13.63;12.23;;;14.20;99.90;;;-141.84;63.33;20445.94;5032788;28;20200;-72
2023/05/20 05:53:47;;;;;;;13.80;12.33;;;14.30;99.90;;;-141.84;63.18;20506.94;5032731;28;20233;-70
2023/05/20 05:56:16;;;;;;;15.77;13.07;;;14.50;99.90;;;-141.84;62.67;20502.88;5032416;28;20292;-71
2023/05/20 05:58:47;;;;;;;13.60;12.20;;;14.60;99.90;;;-141.84;63.32;20478.47;5032374;28;20228;-71
2023/05/20 06:01:15;;;;;;;14.10;11.73;;;14.50;99.90;;;-141.84;62.65;20513.03;5032466;28;20297;-71
2023/05/20 06:03:43;;;;;;;13.43;11.73;;;14.60;99.90;;;-141.84;62.26;20527.25;5032520;28;20202;-71
2023/05/20 06:06:11;;;;;;;14.65;13.13;;;14.80;99.90;;;-141.84;62.28;20515.06;5032561;28;20237;-72
2023/05/20 06:08:39;;;;;;;15.05;12.75;;;14.60;99.90;;;-141.84;62.87;20519.13;5032167;28;20577;-71
2023/05/20 06:11:08;;;;;;;14.97;12.33;;;14.60;99.90;;;-141.84;62.67;20549.63;5032233;28;20198;-71
2023/05/20 06:13:38;;;;;;;15.03;12.53;;;14.60;99.90;;;-141.84;62.98;20490.66;5032299;28;20233;-71
2023/05/20 06:16:06;;;;;;;13.23;11.82;;;14.60;99.90;;;-141.84;62.86;20513.03;5032041;28;20281;-70
2023/05/20 06:18:34;;;;;;;14.00;12.50;;;14.70;99.90;;;-141.84;63.69;20445.94;5031866;28;20202;-71
2023/05/20 06:21:03;;;;;;;13.13;11.50;;;14.50;99.90;;;-141.84;63.89;20443.91;5031965;28;20233;-73
2023/05/20 06:23:31;;;;;;;13.47;11.97;;;14.40;99.90;;;-141.84;63.85;20460.19;5031944;28;20252;-71
2023/05/20 06:26:00;;;;;;;15.40;13.20;;;14.50;99.90;;;-141.84;62.67;20523.19;5031863;28;20289;-71
2023/05/20 06:28:30;;;;;;;14.93;12.57;;;14.60;99.90;;;-141.84;62.19;20508.97;5031614;28;20659;-72
2023/05/20 06:31:00;;;;;;;14.90;11.83;;;14.60;99.90;;;-141.84;62.27;20533.34;5031610;28;20289;-71
2023/05/20 06:33:28;;;;;;;13.67;12.03;;;14.80;99.90;;;-141.84;62.15;20531.31;5031416;28;20736;-71
2023/05/20 06:36:00;;;;;;;16.17;13.32;;;14.80;99.90;;;-141.84;61.64;20553.69;5031559;28;20285;-71
2023/05/20 06:38:29;;;;;;;14.45;12.93;;;14.90;99.90;;;-141.84;62.47;20527.25;5031949;28;20182;-71
2023/05/20 06:40:57;;;;;;;15.75;13.18;;;14.80;99.90;;;-141.84;63.00;20476.44;5031136;28;20218;-72
2023/05/20 06:43:25;;;;;;;14.77;12.98;;;14.70;99.90;;;-141.84;63.59;20486.59;5030979;28;20237;-71
2023/05/20 06:45:53;;;;;;;14.38;12.45;;;14.50;99.90;;;-141.84;64.13;20460.19;5031414;28;20214;-71
2023/05/20 06:48:23;;;;;;;14.27;12.33;;;14.40;99.90;;;-141.84;64.22;20452.06;5031568;28;20202;-71
2023/05/20 06:50:51;;;;;;;14.23;12.73;;;14.40;99.90;;;-141.84;63.42;20502.88;5031455;28;20202;-71
2023/05/20 06:53:20;;;;;;;15.67;13.50;;;14.50;99.90;;;-141.84;63.10;20529.28;5032068;28;20662;-73
2023/05/20 06:55:48;;;;;;;14.65;12.75;;;14.60;99.90;;;-141.84;62.89;20513.03;5032425;28;20260;-70
2023/05/20 06:58:16;;;;;;;14.13;12.60;;;14.70;99.90;;;-141.84;62.91;20506.94;5030516;28;20202;-71
2023/05/20 07:00:44;;;;;;;16.53;13.33;;;14.70;99.90;;;-141.84;62.70;20517.09;5030719;28;20233;-70
2023/05/20 07:03:12;;;;;;;14.20;12.80;;;14.70;99.90;;;-141.84;63.14;20515.06;5031759;28;20208;-71
2023/05/20 07:05:42;;;;;;;18.00;13.13;;;14.70;99.90;;;-141.84;63.08;20527.25;5031455;28;20601;-72
2023/05/20 07:08:10;;;;;;;15.27;13.70;;;14.70;99.90;;;-141.84;63.39;20529.28;5031100;28;20586;-71
2023/05/20 07:10:38;;;;;;;15.03;13.50;;;14.70;99.90;;;-141.84;63.84;20506.94;5031254;28;20233;-71
2023/05/20 07:13:06;;;;;;;16.23;13.63;;;14.60;99.90;;;-141.84;63.84;20470.34;5030579;28;20289;-71
2023/05/20 07:15:34;;;;;;;18.30;15.02;;;14.50;99.90;;;-141.84;63.99;20456.13;5030847;28;20260;-72
2023/05/20 07:18:03;;;;;;;17.93;14.77;;;14.50;99.90;;;-141.84;63.83;20464.25;5031443;28;20206;-72
2023/05/20 07:20:31;;;;;;;16.65;14.93;;;14.50;99.90;;;-141.84;64.15;20460.19;5031416;28;20210;-71
2023/05/20 07:23:02;;;;;;;18.27;14.47;;;14.40;99.90;;;-141.84;64.74;20439.84;5030552;28;20221;-71
2023/05/20 07:25:31;;;;;;;16.77;14.48;;;14.40;99.90;;;-141.84;64.36;20452.06;5031191;28;20273;-72
2023/05/20 07:27:59;;;;;;;17.30;15.30;;;14.40;99.90;;;-141.84;64.60;20443.91;5030793;28;20206;-72
2023/05/20 07:30:27;;;;;;;17.77;15.27;;;14.40;99.90;;;-141.84;64.11;20468.31;5030926;28;20206;-71
2023/05/20 07:32:55;;;;;;;18.73;15.45;;;14.40;99.90;;;-141.84;63.81;20513.03;5030475;28;20230;-72
2023/05/20 07:35:24;;;;;;;16.97;15.17;;;14.50;99.90;;;-141.84;64.34;20458.16;5030351;28;20202;-68
2023/05/20 07:37:52;;;;;;;18.25;15.20;;;14.50;99.90;;;-141.84;63.97;20523.19;5030688;28;20230;-70
2023/05/20 07:40:22;;;;;;;19.48;14.73;;;14.60;99.90;;;-141.84;63.85;20519.13;5030554;28;20269;-68
2023/05/20 07:42:50;;;;;;;17.93;14.80;;;14.60;99.90;;;-141.84;62.97;20533.34;5029671;28;20213;-69
2023/05/20 07:45:18;;;;;;;19.17;16.17;;;14.80;99.90;;;-141.84;61.85;20590.28;5030789;28;20206;-68
2023/05/20 07:47:46;;;;;;;16.88;14.00;;;15.00;99.90;;;-141.84;61.76;20610.59;5030324;28;20692;-69
2023/05/20 07:50:14;;;;;;;17.75;14.50;;;15.10;99.90;;;-141.84;61.03;20637.03;5030805;28;20330;-69
2023/05/20 07:52:42;;;;;;;16.10;13.98;;;15.30;99.90;;;-141.84;60.12;20698.00;5030569;28;20233;-69
2023/05/20 07:55:24;;;;;;;16.35;14.43;;;15.50;99.90;;;-141.84;58.92;20728.50;5030616;28;20204;-69
2023/05/20 07:57:52;;;;;;;16.25;13.80;;;15.80;99.90;;;-141.84;58.44;20765.09;5029967;28;20582;-68
2023/05/20 08:00:21;;;;;;;16.08;14.38;;;16.00;99.90;;;-141.84;58.19;20752.91;5030596;28;20202;-69
2023/05/20 08:02:49;;;;;;;16.15;14.25;;;16.10;99.90;;;-141.84;57.79;20817.94;5030076;28;20313;-70
2023/05/20 08:05:17;;;;;;;18.30;15.57;;;16.20;99.90;;;-141.84;57.38;20795.59;5030907;28;20206;-69
2023/05/20 08:07:46;;;;;;;16.50;14.70;;;16.30;99.90;;;-141.84;57.86;20799.66;5030844;28;20190;-71
2023/05/20 08:10:14;;;;;;;17.05;14.43;;;16.30;99.90;;;-141.84;58.63;20761.03;5034698;28;20296;-69
2023/05/20 08:12:44;;;;;;;16.73;14.32;;;16.10;99.90;;;-141.84;58.51;20738.66;5034477;28;20289;-68
2023/05/20 08:15:12;;;;;;;16.17;14.27;;;16.10;99.90;;;-141.84;58.59;20736.63;5034487;28;20226;-69
2023/05/20 08:17:40;;;;;;;16.63;14.65;;;16.10;99.90;;;-141.84;58.43;20781.38;5034436;28;20284;-69
2023/05/20 08:20:11;;;;;;;16.17;14.48;;;16.20;99.90;;;-141.84;58.16;20793.56;5034468;28;20201;-70
2023/05/20 08:22:40;;;;;;;16.30;14.60;;;16.20;99.90;;;-141.84;58.11;20822.03;5034350;28;20672;-70
2023/05/20 08:25:09;;;;;;;16.35;14.55;;;16.30;99.90;;;-141.84;58.17;20795.59;5034827;28;20225;-69
2023/05/20 08:27:37;;;;;;;14.95;13.45;;;16.30;99.90;;;-141.84;57.84;20811.84;5034051;28;20206;-69
2023/05/20 08:30:09;;;;;;;15.73;13.73;;;16.40;99.90;;;-141.84;57.98;20820.00;5034578;28;20285;-69
2023/05/20 08:32:37;;;;;;;14.77;13.15;;;16.40;99.90;;;-141.84;57.38;20870.81;5033481;28;20230;-70
2023/05/20 08:35:08;;;;;;;15.90;13.73;;;16.60;99.90;;;-141.84;57.33;20844.38;5034177;28;20213;-69
2023/05/20 08:37:36;;;;;;;15.70;13.80;;;16.60;99.90;;;-141.84;57.71;20866.75;5033825;28;20238;-69
2023/05/20 08:40:05;;;;;;;14.02;12.55;;;16.70;99.90;;;-141.84;56.89;20917.56;5034277;28;20228;-69
2023/05/20 08:42:33;;;;;;;14.82;13.32;;;16.80;99.90;;;-141.84;56.08;20952.13;5033214;28;20741;-69
2023/05/20 08:45:04;;;;;;;15.07;13.48;;;17.00;99.90;;;-141.84;55.90;20950.09;5034155;28;20205;-70
2023/05/20 08:47:34;;;;;;;13.38;11.98;;;17.10;99.90;;;-141.84;55.34;20966.34;5033668;28;20186;-70
2023/05/20 08:50:02;;;;;;;17.55;13.90;;;17.20;99.90;;;-141.84;54.05;21084.28;5033582;28;20670;-68
2023/05/20 08:52:34;;;;;;;16.92;13.80;;;17.50;99.90;;;-141.84;53.04;21118.84;5033353;28;20748;-68
2023/05/20 08:55:04;;;;;;;15.38;13.82;;;17.70;99.90;;;-141.84;52.59;21228.63;5034126;28;20186;-69
2023/05/20 08:57:33;;;;;;;15.13;13.52;;;18.00;99.90;;;-141.84;52.56;21196.09;5033805;28;20206;-68
2023/05/20 09:00:07;;;;;;;15.13;13.52;;;18.10;99.90;;;-141.84;52.30;21151.34;5029750;28;20813;-68
2023/05/20 09:02:38;;;;;;;16.52;13.85;;;18.20;99.90;;;-141.84;53.21;21112.72;5032297;28;20220;-73
2023/05/20 09:05:10;;;;;;;16.08;13.88;;;18.20;99.90;;;-141.84;52.68;21135.09;5028627;28;20233;-75
2023/05/20 09:07:38;;;;;;;15.93;13.38;;;18.10;99.90;;;-141.84;53.42;21151.34;5031995;28;20198;-73
2023/05/20 09:10:08;;;;;;;15.88;14.18;;;18.00;99.90;;;-141.84;53.80;21094.44;5031974;28;20202;-75
2023/05/20 09:12:37;;;;;;;16.52;14.60;;;18.00;99.90;;;-141.84;53.89;21118.84;5032000;28;20206;-74
2023/05/20 09:15:07;;;;;;;17.10;14.50;;;17.80;99.90;;;-141.84;54.20;21059.88;5031656;28;20194;-74
2023/05/20 09:17:36;;;;;;;16.13;14.43;;;17.70;99.90;;;-141.84;54.97;21021.25;5031875;28;20198;-73
2023/05/20 09:20:10;;;;;;;18.05;15.85;;;17.60;99.90;;;-141.84;54.78;21053.78;5030809;28;20202;-74
2023/05/20 09:22:40;;;;;;;17.83;15.70;;;17.60;99.90;;;-141.84;54.66;21021.25;5031699;28;20548;-73
2023/05/20 09:25:11;;;;;;;18.52;16.05;;;17.60;99.90;;;-141.84;54.36;21053.78;5024335;28;20562;-70
2023/05/20 09:27:40;;;;;;;16.20;14.23;;;17.50;99.90;;;-141.84;54.29;21082.25;5031701;28;20289;-72
2023/05/20 09:30:11;;;;;;;18.08;15.55;;;17.70;99.90;;;-141.84;53.67;21078.16;5031930;28;20214;-72
2023/05/20 09:32:40;;;;;;;18.17;16.15;;;17.80;99.90;;;-141.84;53.58;21122.91;5029440;28;20416;-71
2023/05/20 09:35:14;;;;;;;17.92;15.95;;;17.80;99.90;;;-141.84;54.09;21090.38;5031238;28;20567;-72
2023/05/20 09:37:46;;;;;;;17.25;15.43;;;17.90;99.90;;;-141.84;54.72;21039.53;5028063;28;20189;-71
2023/05/20 09:40:16;;;;;;;18.48;15.60;;;17.90;99.90;;;-141.84;54.06;21216.41;5031447;28;20194;-71
2023/05/20 09:42:53;;;;;;;17.60;15.70;;;17.90;99.90;;;-141.84;53.77;21118.84;5031465;28;20214;-70
2023/05/20 09:45:23;;;;;;;18.60;15.80;;;17.90;99.90;;;-141.84;53.64;21108.66;5031635;28;20277;-71
2023/05/20 09:47:52;;;;;;;16.70;14.90;;;17.90;99.90;;;-141.84;54.31;21102.56;5031391;28;20198;-71
2023/05/20 09:50:24;;;;;;;17.60;15.70;;;17.80;99.90;;;-141.84;54.43;21061.91;5031591;28;20245;-70
2023/05/20 09:52:54;;;;;;;17.98;15.48;;;17.70;99.90;;;-141.84;54.60;21094.44;5031766;28;20289;-70
2023/05/20 09:55:25;;;;;;;17.00;15.20;;;17.80;99.90;;;-141.84;53.49;21244.88;5031356;28;20209;-70
2023/05/20 09:57:54;;;;;;;16.85;14.90;;;18.20;99.90;;;-141.84;51.68;21375.00;5031426;28;20230;-71
2023/05/20 10:00:22;;;;;;;15.55;13.95;;;18.70;99.90;;;-141.84;50.80;21419.72;5030880;28;20208;-72
2023/05/20 10:02:52;;;;;;;19.88;17.98;;;19.10;99.90;;;-141.84;50.70;21372.97;5031467;28;20224;-71
2023/05/20 10:05:27;;;;;;;15.75;13.98;;;19.10;99.90;;;-141.84;49.76;21472.59;5031161;28;20194;-72